createdAt,value
2023-01-13T00:00:39.421Z,7.90
2023-01-13T00:03:05.868Z,7.72
2023-01-13T00:05:32.345Z,7.67
2023-01-13T00:07:58.735Z,7.80
2023-01-13T00:10:25.145Z,7.78
2023-01-13T00:12:51.509Z,7.82
2023-01-13T00:15:17.896Z,7.98
2023-01-13T00:17:44.256Z,8.03
2023-01-13T00:20:11.665Z,8.01
2023-01-13T00:22:38.182Z,7.98
2023-01-13T00:25:04.626Z,7.91
2023-01-13T00:27:31.055Z,7.99
2023-01-13T00:29:57.499Z,7.88
2023-01-13T00:32:23.870Z,7.96
2023-01-13T00:34:50.307Z,7.65
2023-01-13T00:37:16.679Z,7.59
2023-01-13T00:39:43.073Z,7.50
2023-01-13T00:42:09.486Z,7.46
2023-01-13T00:44:35.851Z,7.30
2023-01-13T00:47:02.212Z,7.10
2023-01-13T00:49:28.650Z,6.99
2023-01-13T00:51:55.050Z,7.01
2023-01-13T00:54:21.452Z,7.10
2023-01-13T00:56:47.839Z,7.08
2023-01-13T00:59:14.200Z,7.00
2023-01-13T01:01:40.759Z,6.95
2023-01-13T01:04:07.207Z,7.04
2023-01-13T01:06:33.740Z,6.92
2023-01-13T01:09:00.207Z,6.97
2023-01-13T01:11:26.609Z,7.05
2023-01-13T01:13:53.020Z,7.08
2023-01-13T01:16:19.448Z,7.21
2023-01-13T01:18:45.916Z,7.24
2023-01-13T01:21:12.288Z,7.18
2023-01-13T01:23:38.644Z,7.20
2023-01-13T01:26:05.076Z,7.17
2023-01-13T01:28:31.448Z,7.17
2023-01-13T01:30:57.856Z,7.09
2023-01-13T01:33:24.287Z,6.98
2023-01-13T01:35:50.850Z,7.05
2023-01-13T01:38:17.244Z,7.05
2023-01-13T01:40:43.614Z,7.06
2023-01-13T01:43:10.061Z,7.04
2023-01-13T01:45:36.485Z,6.99
2023-01-13T01:48:02.925Z,6.95
2023-01-13T01:50:29.325Z,6.97
2023-01-13T01:52:55.676Z,6.85
2023-01-13T01:55:23.094Z,6.86
2023-01-13T01:57:49.513Z,6.86
2023-01-13T02:00:15.876Z,6.87
2023-01-13T02:02:42.311Z,6.95
2023-01-13T02:05:08.732Z,6.82
2023-01-13T02:07:35.150Z,6.81
2023-01-13T02:10:01.520Z,6.93
2023-01-13T02:12:27.904Z,6.93
2023-01-13T02:14:54.269Z,6.92
2023-01-13T02:17:20.629Z,6.93
2023-01-13T02:19:47.033Z,6.97
2023-01-13T02:22:13.503Z,6.95
2023-01-13T02:24:39.867Z,7.00
2023-01-13T02:27:06.427Z,6.93
2023-01-13T02:29:32.907Z,7.02
2023-01-13T02:31:59.268Z,6.95
2023-01-13T02:34:25.634Z,6.97
2023-01-13T02:36:52.068Z,6.99
2023-01-13T02:39:18.727Z,7.04
2023-01-13T02:41:45.136Z,7.07
2023-01-13T02:44:11.504Z,7.19
2023-01-13T02:46:37.889Z,7.18
2023-01-13T02:49:05.237Z,7.30
2023-01-13T02:51:31.662Z,7.14
2023-01-13T02:53:58.050Z,7.08
2023-01-13T02:56:24.469Z,7.04
2023-01-13T02:58:50.849Z,7.20
2023-01-13T03:01:17.348Z,7.11
2023-01-13T03:03:43.843Z,7.22
2023-01-13T03:06:10.237Z,7.21
2023-01-13T03:08:36.631Z,7.33
2023-01-13T03:11:03.112Z,7.27
2023-01-13T03:13:29.552Z,7.33
2023-01-13T03:15:55.913Z,7.43
2023-01-13T03:18:22.424Z,7.35
2023-01-13T03:20:48.814Z,7.28
2023-01-13T03:23:15.192Z,7.21
2023-01-13T03:25:41.567Z,6.98
2023-01-13T03:28:07.962Z,6.88
2023-01-13T03:30:34.604Z,6.78
2023-01-13T03:33:01.084Z,6.75
2023-01-13T03:35:27.560Z,6.66
2023-01-13T03:37:54.009Z,6.59
2023-01-13T03:40:20.396Z,6.48
2023-01-13T03:42:46.776Z,6.46
2023-01-13T03:45:13.174Z,6.50
2023-01-13T03:47:39.552Z,6.44
2023-01-13T03:50:05.931Z,6.52
2023-01-13T03:52:32.413Z,6.46
2023-01-13T03:54:58.806Z,6.56
2023-01-13T03:57:25.334Z,6.62
2023-01-13T03:59:51.850Z,6.57
2023-01-13T04:02:18.327Z,6.50
2023-01-13T04:04:44.699Z,6.50
2023-01-13T04:07:11.071Z,6.50
2023-01-13T04:09:37.511Z,6.52
2023-01-13T04:12:04.008Z,6.54
2023-01-13T04:14:30.392Z,6.62
2023-01-13T04:16:56.890Z,6.47
2023-01-13T04:19:23.316Z,6.34
2023-01-13T04:21:49.756Z,6.25
2023-01-13T04:24:16.177Z,6.32
2023-01-13T04:26:42.544Z,6.27
2023-01-13T04:29:08.971Z,6.30
2023-01-13T04:31:35.335Z,6.30
2023-01-13T04:34:01.775Z,6.14
2023-01-13T04:36:28.168Z,5.96
2023-01-13T04:38:54.690Z,5.94
2023-01-13T04:41:21.131Z,5.91
2023-01-13T04:43:47.522Z,5.75
2023-01-13T04:46:13.961Z,5.78
2023-01-13T04:48:40.433Z,5.60
2023-01-13T04:51:06.856Z,5.73
2023-01-13T04:53:34.280Z,5.71
2023-01-13T04:56:00.658Z,5.63
2023-01-13T04:58:27.101Z,5.74
2023-01-13T05:00:53.735Z,5.87
2023-01-13T05:03:20.152Z,5.72
2023-01-13T05:05:46.597Z,5.64
2023-01-13T05:08:13.095Z,5.57
2023-01-13T05:10:39.513Z,5.53
2023-01-13T05:13:05.904Z,5.53
2023-01-13T05:15:32.319Z,5.42
2023-01-13T05:17:58.823Z,5.47
2023-01-13T05:20:25.206Z,5.42
2023-01-13T05:22:51.645Z,5.41
2023-01-13T05:25:18.059Z,5.40
2023-01-13T05:27:44.482Z,5.47
2023-01-13T05:30:11.878Z,5.48
2023-01-13T05:32:38.265Z,5.36
2023-01-13T05:35:04.677Z,5.41
2023-01-13T05:37:31.068Z,5.33
2023-01-13T05:39:57.479Z,5.35
2023-01-13T05:42:23.861Z,5.34
2023-01-13T05:44:50.319Z,5.35
2023-01-13T05:47:16.704Z,5.37
2023-01-13T05:49:43.086Z,5.37
2023-01-13T05:52:09.551Z,5.21
2023-01-13T05:54:35.981Z,5.28
2023-01-13T05:57:02.359Z,5.20
2023-01-13T05:59:28.750Z,5.28
2023-01-13T06:01:55.258Z,5.26
2023-01-13T06:04:21.730Z,5.17
2023-01-13T06:06:48.172Z,5.33
2023-01-13T06:09:14.569Z,5.25
2023-01-13T06:11:41.019Z,5.16
2023-01-13T06:14:07.802Z,5.14
2023-01-13T06:16:34.245Z,5.13
2023-01-13T06:19:00.642Z,5.23
2023-01-13T06:21:27.919Z,5.04
2023-01-13T06:23:54.283Z,5.10
2023-01-13T06:26:20.907Z,5.12
2023-01-13T06:28:47.339Z,5.25
2023-01-13T06:31:13.747Z,5.14
2023-01-13T06:33:40.187Z,4.92
2023-01-13T06:36:07.604Z,4.95
2023-01-13T06:38:33.971Z,5.14
2023-01-13T06:41:00.356Z,5.06
2023-01-13T06:43:26.727Z,5.14
2023-01-13T06:45:53.085Z,4.96
2023-01-13T06:48:19.489Z,5.03
2023-01-13T06:50:45.905Z,5.09
2023-01-13T06:53:12.271Z,5.02
2023-01-13T06:55:38.714Z,4.88
2023-01-13T06:58:05.290Z,4.91
2023-01-13T07:00:31.752Z,4.93
2023-01-13T07:02:58.201Z,4.97
2023-01-13T07:05:24.644Z,4.94
2023-01-13T07:07:51.016Z,4.91
2023-01-13T07:10:17.398Z,4.96
2023-01-13T07:12:44.134Z,4.98
2023-01-13T07:15:10.661Z,5.00
2023-01-13T07:17:37.063Z,5.04
2023-01-13T07:20:03.438Z,5.04
2023-01-13T07:22:29.859Z,5.08
2023-01-13T07:24:56.230Z,5.12
2023-01-13T07:27:22.621Z,4.98
2023-01-13T07:29:49.080Z,5.08
2023-01-13T07:32:15.460Z,4.93
2023-01-13T07:34:41.835Z,4.95
2023-01-13T07:37:08.504Z,4.88
2023-01-13T07:39:34.976Z,4.92
2023-01-13T07:42:01.343Z,4.82
2023-01-13T07:44:27.785Z,4.92
2023-01-13T07:46:54.171Z,4.86
2023-01-13T07:49:20.568Z,4.84
2023-01-13T07:51:47.067Z,4.85
2023-01-13T07:54:13.449Z,4.81
2023-01-13T07:56:39.812Z,4.76
2023-01-13T07:59:06.247Z,4.80
2023-01-13T08:01:33.725Z,4.89
2023-01-13T08:04:00.214Z,4.90
2023-01-13T08:06:26.565Z,4.84
2023-01-13T08:08:53.088Z,5.01
2023-01-13T08:11:21.056Z,5.11
2023-01-13T08:13:48.596Z,5.18
2023-01-13T08:16:15.056Z,5.18
2023-01-13T08:18:41.552Z,5.23
2023-01-13T08:21:08.068Z,5.33
2023-01-13T08:23:34.467Z,5.35
2023-01-13T08:26:00.897Z,5.28
2023-01-13T08:28:27.380Z,5.26
2023-01-13T08:30:53.886Z,5.07
2023-01-13T08:33:20.356Z,5.14
2023-01-13T08:35:46.798Z,5.17
2023-01-13T08:38:13.165Z,5.05
2023-01-13T08:40:39.640Z,5.00
2023-01-13T08:43:06.028Z,5.03
2023-01-13T08:45:32.446Z,5.16
2023-01-13T08:47:59.165Z,5.14
2023-01-13T08:50:25.644Z,5.22
2023-01-13T08:52:52.047Z,5.35
2023-01-13T08:55:18.554Z,5.22
2023-01-13T08:57:44.937Z,5.01
2023-01-13T09:00:11.353Z,5.08
2023-01-13T09:02:37.729Z,5.17
2023-01-13T09:05:04.120Z,5.10
2023-01-13T09:07:30.501Z,5.37
2023-01-13T09:09:57.022Z,5.47
2023-01-13T09:12:23.412Z,5.34
2023-01-13T09:14:49.886Z,5.33
2023-01-13T09:17:16.252Z,5.29
2023-01-13T09:19:42.879Z,5.43
2023-01-13T09:22:09.558Z,5.74
2023-01-13T09:24:35.925Z,5.88
2023-01-13T09:27:02.396Z,6.10
2023-01-13T09:29:28.749Z,6.04
2023-01-13T09:31:55.239Z,6.04
2023-01-13T09:34:21.627Z,6.16
2023-01-13T09:36:48.015Z,6.06
2023-01-13T09:39:14.411Z,6.12
2023-01-13T09:41:40.978Z,6.23
2023-01-13T09:44:07.368Z,6.24
2023-01-13T09:46:34.244Z,5.88
2023-01-13T09:49:00.792Z,5.58
2023-01-13T09:51:27.290Z,5.66
2023-01-13T09:53:54.102Z,5.54
2023-01-13T09:56:20.492Z,5.41
2023-01-13T09:58:46.870Z,5.56
2023-01-13T10:01:13.323Z,5.79
2023-01-13T10:03:39.845Z,5.97
2023-01-13T10:06:06.367Z,5.76
2023-01-13T10:08:32.733Z,5.94
2023-01-13T10:10:59.125Z,6.00
2023-01-13T10:13:25.781Z,6.37
2023-01-13T10:15:52.206Z,6.49
2023-01-13T10:18:18.651Z,6.32
2023-01-13T10:20:45.165Z,6.10
2023-01-13T10:23:11.641Z,6.27
2023-01-13T10:25:38.077Z,6.21
2023-01-13T10:28:04.588Z,6.32
2023-01-13T10:30:31.055Z,6.60
2023-01-13T10:32:57.526Z,6.69
2023-01-13T10:35:23.949Z,6.76
2023-01-13T10:37:50.352Z,6.45
2023-01-13T10:40:16.802Z,6.30
2023-01-13T10:42:43.214Z,6.22
2023-01-13T10:45:09.685Z,6.35
2023-01-13T10:47:36.061Z,6.12
2023-01-13T10:50:02.494Z,6.24
2023-01-13T10:52:29.122Z,6.60
2023-01-13T10:54:55.585Z,7.42
2023-01-13T10:57:22.001Z,7.73
2023-01-13T10:59:48.428Z,7.46
2023-01-13T11:02:25.304Z,7.29
2023-01-13T11:04:52.792Z,7.08
2023-01-13T11:07:21.877Z,7.00
2023-01-13T11:09:48.264Z,7.05
2023-01-13T11:12:14.619Z,7.52
2023-01-13T11:14:41.046Z,7.80
2023-01-13T11:17:07.471Z,7.81
2023-01-13T11:19:37.957Z,8.14
2023-01-13T11:22:04.489Z,8.23
2023-01-13T11:24:30.864Z,8.51
2023-01-13T11:26:57.464Z,8.48
2023-01-13T11:29:23.823Z,8.40
2023-01-13T11:31:50.296Z,8.05
2023-01-13T11:34:16.662Z,8.31
2023-01-13T11:36:43.037Z,8.19
2023-01-13T11:39:09.454Z,7.95
2023-01-13T11:41:35.831Z,7.73
2023-01-13T11:44:03.049Z,8.08
2023-01-13T11:46:29.447Z,7.88
2023-01-13T11:48:55.922Z,7.33
2023-01-13T11:51:23.308Z,7.37
2023-01-13T11:53:50.054Z,7.89
2023-01-13T11:56:16.514Z,7.89
2023-01-13T11:58:50.786Z,7.86
2023-01-13T12:01:17.776Z,8.50
2023-01-13T12:03:44.175Z,7.98
2023-01-13T12:06:10.549Z,7.91
2023-01-13T12:08:36.987Z,7.95
2023-01-13T12:11:03.356Z,7.71
2023-01-13T12:13:29.748Z,7.50
2023-01-13T12:15:56.997Z,8.53
2023-01-13T12:18:23.404Z,8.87
2023-01-13T12:20:49.779Z,9.05
2023-01-13T12:23:16.180Z,8.52
2023-01-13T12:25:42.579Z,9.38
2023-01-13T12:28:08.984Z,9.85
2023-01-13T12:30:35.387Z,9.53
2023-01-13T12:33:01.795Z,9.45
2023-01-13T12:35:28.280Z,9.70
2023-01-13T12:37:54.684Z,8.79
2023-01-13T12:40:21.040Z,8.85
2023-01-13T12:42:47.407Z,8.89
2023-01-13T12:45:13.840Z,8.78
2023-01-13T12:47:40.247Z,8.63
2023-01-13T12:50:06.600Z,8.40
2023-01-13T12:52:32.970Z,9.13
2023-01-13T12:54:59.369Z,9.23
2023-01-13T12:57:25.842Z,8.83
2023-01-13T12:59:52.221Z,8.89
2023-01-13T13:02:18.864Z,9.15
2023-01-13T13:04:46.695Z,8.57
2023-01-13T13:07:13.088Z,9.40
2023-01-13T13:09:39.453Z,9.86
2023-01-13T13:12:05.799Z,9.93
2023-01-13T13:14:32.284Z,9.82
2023-01-13T13:16:58.691Z,9.03
2023-01-13T13:19:25.100Z,8.50
2023-01-13T13:21:51.546Z,8.65
2023-01-13T13:24:17.915Z,8.54
2023-01-13T13:26:44.318Z,9.09
2023-01-13T13:29:10.696Z,8.73
2023-01-13T13:31:37.083Z,9.55
2023-01-13T13:34:03.474Z,10.12
2023-01-13T13:36:29.875Z,8.97
2023-01-13T13:38:56.261Z,8.73
2023-01-13T13:41:22.950Z,8.88
2023-01-13T13:43:49.403Z,8.85
2023-01-13T13:46:15.812Z,8.76
2023-01-13T13:48:42.367Z,8.88
2023-01-13T13:51:11.036Z,8.57
2023-01-13T13:53:37.478Z,8.51
2023-01-13T13:56:03.861Z,8.29
2023-01-13T13:58:31.401Z,8.56
2023-01-13T14:00:57.917Z,8.49
2023-01-13T14:03:24.374Z,8.32
2023-01-13T14:05:50.821Z,8.46
2023-01-13T14:08:17.166Z,8.38
2023-01-13T14:10:43.607Z,8.43
2023-01-13T14:13:10.113Z,8.78
2023-01-13T14:15:36.554Z,8.89
2023-01-13T14:18:03.002Z,9.35
2023-01-13T14:20:29.526Z,9.83
2023-01-13T14:22:55.872Z,11.53
2023-01-13T14:25:22.385Z,13.01
2023-01-13T14:27:48.796Z,13.99
2023-01-13T14:30:15.484Z,12.91
2023-01-13T14:32:41.856Z,12.32
2023-01-13T14:35:08.250Z,13.96
2023-01-13T14:37:34.654Z,14.84
2023-01-13T14:40:01.050Z,14.04
2023-01-13T14:42:27.476Z,13.49
2023-01-13T14:44:56.132Z,14.06
2023-01-13T14:47:22.740Z,11.61
2023-01-13T14:49:49.153Z,10.41
2023-01-13T14:52:15.547Z,9.25
2023-01-13T14:54:42.019Z,8.98
2023-01-13T14:57:08.393Z,9.07
2023-01-13T14:59:34.767Z,8.88
2023-01-13T15:02:01.184Z,9.02
2023-01-13T15:04:27.609Z,8.79
2023-01-13T15:06:55.918Z,8.15
2023-01-13T15:09:22.294Z,8.11
2023-01-13T15:11:48.687Z,8.20
2023-01-13T15:14:15.081Z,7.99
2023-01-13T15:16:41.470Z,7.98
2023-01-13T15:19:07.845Z,7.99
2023-01-13T15:21:34.257Z,8.08
2023-01-13T15:24:00.683Z,8.10
2023-01-13T15:26:27.081Z,7.98
2023-01-13T15:28:53.457Z,7.96
2023-01-13T15:31:19.926Z,7.93
2023-01-13T15:33:46.361Z,8.14
2023-01-13T15:36:12.750Z,8.05
2023-01-13T15:38:39.190Z,8.18
2023-01-13T15:41:05.580Z,8.22
2023-01-13T15:43:31.954Z,8.12
2023-01-13T15:45:58.348Z,7.86
2023-01-13T15:48:24.749Z,7.79
2023-01-13T15:50:51.215Z,7.85
2023-01-13T15:53:17.992Z,7.80
2023-01-13T15:55:44.413Z,7.66
2023-01-13T15:58:10.979Z,7.69
2023-01-13T16:00:56.820Z,7.75
2023-01-13T16:03:23.518Z,7.93
2023-01-13T16:05:49.899Z,7.99
2023-01-13T16:08:16.285Z,7.94
2023-01-13T16:10:42.702Z,8.02
2023-01-13T16:13:09.120Z,7.97
2023-01-13T16:15:35.590Z,8.14
2023-01-13T16:18:01.961Z,8.07
2023-01-13T16:20:28.344Z,8.12
2023-01-13T16:22:54.787Z,8.05
2023-01-13T16:25:21.219Z,8.08
2023-01-13T16:27:47.621Z,8.05
2023-01-13T16:30:14.078Z,8.01
2023-01-13T16:32:40.489Z,7.92
2023-01-13T16:35:06.872Z,7.95
2023-01-13T16:37:33.389Z,7.92
2023-01-13T16:39:59.769Z,7.84
2023-01-13T16:42:26.185Z,7.79
2023-01-13T16:44:52.557Z,7.80
2023-01-13T16:47:18.945Z,7.73
2023-01-13T16:49:45.453Z,7.78
2023-01-13T16:52:11.837Z,7.79
2023-01-13T16:54:38.328Z,7.82
2023-01-13T16:57:04.702Z,7.83
2023-01-13T16:59:31.224Z,7.80
2023-01-13T17:01:57.648Z,7.76
2023-01-13T17:04:24.075Z,7.71
2023-01-13T17:06:50.457Z,7.77
2023-01-13T17:09:16.914Z,7.72
2023-01-13T17:11:43.305Z,7.80
2023-01-13T17:14:18.156Z,7.83
2023-01-13T17:16:45.565Z,7.79
2023-01-13T17:19:12.214Z,7.82
2023-01-13T17:21:38.878Z,7.82
2023-01-13T17:24:05.405Z,7.68
2023-01-13T17:26:34.209Z,7.64
2023-01-13T17:29:00.608Z,7.63
2023-01-13T17:31:27.401Z,7.61
2023-01-13T17:33:53.807Z,7.69
2023-01-13T17:36:20.190Z,7.66
2023-01-13T17:38:46.572Z,7.67
2023-01-13T17:41:12.936Z,7.68
2023-01-13T17:43:39.333Z,7.69
2023-01-13T17:46:05.739Z,7.65
2023-01-13T17:48:32.187Z,7.73
2023-01-13T17:50:58.550Z,7.62
2023-01-13T17:53:24.951Z,7.63
2023-01-13T17:55:51.891Z,7.76
2023-01-13T17:58:18.240Z,7.75
2023-01-13T18:00:44.596Z,7.65
2023-01-13T18:03:11.074Z,7.76
2023-01-13T18:05:37.432Z,7.80
2023-01-13T18:08:03.836Z,7.84
2023-01-13T18:10:30.224Z,7.76
2023-01-13T18:12:56.594Z,7.77
2023-01-13T18:15:23.020Z,7.82
2023-01-13T18:17:49.402Z,7.75
2023-01-13T18:20:15.830Z,7.71
2023-01-13T18:22:42.217Z,7.67
2023-01-13T18:25:08.611Z,7.68
2023-01-13T18:27:35.007Z,7.65
2023-01-13T18:30:01.462Z,7.70
2023-01-13T18:32:27.834Z,7.69
2023-01-13T18:35:04.988Z,7.76
2023-01-13T18:37:32.241Z,7.72
2023-01-13T18:39:58.648Z,7.71
2023-01-13T18:42:25.041Z,7.76
2023-01-13T18:44:51.447Z,7.81
2023-01-13T18:47:17.992Z,7.86
2023-01-13T18:49:44.449Z,7.92
2023-01-13T18:52:10.873Z,7.88
2023-01-13T18:54:37.325Z,7.73
2023-01-13T18:57:03.749Z,7.66
2023-01-13T18:59:30.136Z,7.72
2023-01-13T19:01:56.739Z,7.71
2023-01-13T19:04:23.160Z,7.65
2023-01-13T19:06:49.574Z,7.81
2023-01-13T19:09:15.988Z,7.78
2023-01-13T19:11:42.376Z,7.79
2023-01-13T19:14:08.830Z,7.69
2023-01-13T19:16:35.196Z,7.71
2023-01-13T19:19:01.561Z,7.79
2023-01-13T19:21:28.046Z,7.80
2023-01-13T19:23:54.451Z,7.85
2023-01-13T19:26:20.821Z,7.84
2023-01-13T19:28:47.239Z,7.79
2023-01-13T19:31:13.659Z,7.73
2023-01-13T19:33:40.117Z,7.82
2023-01-13T19:36:06.489Z,7.73
2023-01-13T19:38:32.848Z,7.60
2023-01-13T19:40:59.217Z,7.42
2023-01-13T19:43:25.579Z,7.22
2023-01-13T19:45:51.965Z,7.13
2023-01-13T19:48:18.348Z,6.96
2023-01-13T19:50:44.762Z,6.70
2023-01-13T19:53:11.113Z,6.71
2023-01-13T19:55:37.524Z,6.57
2023-01-13T19:58:03.926Z,6.48
2023-01-13T20:00:30.324Z,6.47
2023-01-13T20:02:56.751Z,6.50
2023-01-13T20:05:23.182Z,6.46
2023-01-13T20:07:49.562Z,6.58
2023-01-13T20:10:15.997Z,6.42
2023-01-13T20:12:42.477Z,6.39
2023-01-13T20:15:08.864Z,6.52
2023-01-13T20:17:35.318Z,6.57
2023-01-13T20:20:01.783Z,6.55
2023-01-13T20:22:28.137Z,6.53
2023-01-13T20:24:54.529Z,6.56
2023-01-13T20:27:20.970Z,6.60
2023-01-13T20:29:47.365Z,6.73
2023-01-13T20:32:13.744Z,6.77
2023-01-13T20:34:40.165Z,6.82
2023-01-13T20:37:06.520Z,6.86
2023-01-13T20:39:32.907Z,6.83
2023-01-13T20:41:59.300Z,6.83
2023-01-13T20:44:25.694Z,6.91
2023-01-13T20:46:52.167Z,6.95
2023-01-13T20:49:18.619Z,6.92
2023-01-13T20:51:45.011Z,6.83
2023-01-13T20:54:11.431Z,6.75
2023-01-13T20:56:37.855Z,6.71
2023-01-13T20:59:04.249Z,6.67
2023-01-13T21:01:30.739Z,6.61
2023-01-13T21:03:57.170Z,6.53
2023-01-13T21:06:23.647Z,6.55
2023-01-13T21:08:50.041Z,6.63
2023-01-13T21:11:16.447Z,6.71
2023-01-13T21:13:42.817Z,6.76
2023-01-13T21:16:09.290Z,6.80
2023-01-13T21:18:35.892Z,6.81
2023-01-13T21:21:02.364Z,6.57
2023-01-13T21:23:28.751Z,6.63
2023-01-13T21:25:55.153Z,6.44
2023-01-13T21:28:21.572Z,6.39
2023-01-13T21:30:47.951Z,6.20
2023-01-13T21:33:14.323Z,6.31
2023-01-13T21:35:40.752Z,6.18
2023-01-13T21:38:07.158Z,6.29
2023-01-13T21:40:33.528Z,6.33
2023-01-13T21:43:00.005Z,6.43
2023-01-13T21:45:26.351Z,6.34
2023-01-13T21:47:52.805Z,6.34
2023-01-13T21:50:19.207Z,6.36
2023-01-13T21:52:45.579Z,6.52
2023-01-13T21:55:11.990Z,6.52
2023-01-13T21:57:38.349Z,6.61
2023-01-13T22:00:04.738Z,6.53
2023-01-13T22:02:31.201Z,6.43
2023-01-13T22:04:57.686Z,6.43
2023-01-13T22:07:24.052Z,6.38
2023-01-13T22:09:50.445Z,6.41
2023-01-13T22:12:16.913Z,6.42
2023-01-13T22:14:43.275Z,6.39
2023-01-13T22:17:09.638Z,6.49
2023-01-13T22:19:36.007Z,6.47
2023-01-13T22:22:02.406Z,6.49
2023-01-13T22:24:28.784Z,6.53
2023-01-13T22:26:55.194Z,6.61
2023-01-13T22:29:21.720Z,6.58
2023-01-13T22:31:48.214Z,6.80
2023-01-13T22:34:14.717Z,6.81
2023-01-13T22:36:41.127Z,6.70
2023-01-13T22:39:07.512Z,6.74
2023-01-13T22:41:34.369Z,6.66
2023-01-13T22:44:00.741Z,6.54
2023-01-13T22:46:27.147Z,6.50
2023-01-13T22:48:53.551Z,6.47
2023-01-13T22:51:19.979Z,6.48
2023-01-13T22:53:46.354Z,6.44
2023-01-13T22:56:12.911Z,6.50
2023-01-13T22:58:39.356Z,6.58
2023-01-13T23:01:05.795Z,6.44
2023-01-13T23:03:32.189Z,6.31
2023-01-13T23:05:58.610Z,6.43
2023-01-13T23:08:24.956Z,6.41
2023-01-13T23:10:51.430Z,6.53
2023-01-13T23:13:17.801Z,6.57
2023-01-13T23:15:44.213Z,6.52
2023-01-13T23:18:10.587Z,6.64
2023-01-13T23:20:36.966Z,6.92
2023-01-13T23:23:03.362Z,6.91
2023-01-13T23:25:29.813Z,6.92
2023-01-13T23:27:56.225Z,6.89
2023-01-13T23:30:22.692Z,7.09
2023-01-13T23:32:49.168Z,6.91
2023-01-13T23:35:15.619Z,6.93
2023-01-13T23:37:41.999Z,6.82
2023-01-13T23:40:08.385Z,6.68
2023-01-13T23:42:34.791Z,6.67
2023-01-13T23:45:01.190Z,6.60
2023-01-13T23:47:27.555Z,6.45
2023-01-13T23:49:53.960Z,6.37
2023-01-13T23:52:20.393Z,6.40
2023-01-13T23:54:46.817Z,6.32
2023-01-13T23:57:13.249Z,6.32
2023-01-13T23:59:39.632Z,6.22
